sensor_id;sensor_type;location;lat;lon;timestamp;P1;durP1;ratioP1;P2;durP2;ratioP2
5608;SDS011;2826;51.354;9.588;2022-07-29T00:00:04;10.97;;;1.87;;
5608;SDS011;2826;51.354;9.588;2022-07-29T00:02:33;6.00;;;1.83;;
5608;SDS011;2826;51.354;9.588;2022-07-29T00:05:00;4.07;;;1.33;;
5608;SDS011;2826;51.354;9.588;2022-07-29T00:07:27;7.27;;;1.70;;
5608;SDS011;2826;51.354;9.588;2022-07-29T00:09:55;6.23;;;1.40;;
5608;SDS011;2826;51.354;9.588;2022-07-29T00:12:23;4.93;;;1.93;;
5608;SDS011;2826;51.354;9.588;2022-07-29T00:14:50;5.37;;;1.90;;
5608;SDS011;2826;51.354;9.588;2022-07-29T00:17:19;5.90;;;1.60;;
5608;SDS011;2826;51.354;9.588;2022-07-29T00:19:46;3.40;;;1.73;;
5608;SDS011;2826;51.354;9.588;2022-07-29T00:22:13;4.13;;;1.80;;
5608;SDS011;2826;51.354;9.588;2022-07-29T00:24:40;4.07;;;1.57;;
5608;SDS011;2826;51.354;9.588;2022-07-29T00:27:07;4.97;;;2.00;;
5608;SDS011;2826;51.354;9.588;2022-07-29T00:29:34;2.97;;;1.60;;
5608;SDS011;2826;51.354;9.588;2022-07-29T00:32:01;4.90;;;1.60;;
5608;SDS011;2826;51.354;9.588;2022-07-29T00:34:29;3.70;;;1.70;;
5608;SDS011;2826;51.354;9.588;2022-07-29T00:37:13;2.20;;;1.50;;
5608;SDS011;2826;51.354;9.588;2022-07-29T00:39:40;3.70;;;1.80;;
5608;SDS011;2826;51.354;9.588;2022-07-29T00:42:07;4.13;;;1.60;;
5608;SDS011;2826;51.354;9.588;2022-07-29T00:44:38;3.07;;;1.50;;
5608;SDS011;2826;51.354;9.588;2022-07-29T00:47:05;2.70;;;1.80;;
5608;SDS011;2826;51.354;9.588;2022-07-29T00:49:33;7.23;;;1.67;;
5608;SDS011;2826;51.354;9.588;2022-07-29T00:52:01;4.60;;;2.30;;
5608;SDS011;2826;51.354;9.588;2022-07-29T00:54:28;5.10;;;1.93;;
5608;SDS011;2826;51.354;9.588;2022-07-29T00:56:56;7.87;;;1.70;;
5608;SDS011;2826;51.354;9.588;2022-07-29T00:59:25;8.83;;;1.97;;
5608;SDS011;2826;51.354;9.588;2022-07-29T01:01:52;10.80;;;1.83;;
5608;SDS011;2826;51.354;9.588;2022-07-29T01:04:20;12.00;;;2.17;;
5608;SDS011;2826;51.354;9.588;2022-07-29T01:06:48;3.07;;;1.60;;
5608;SDS011;2826;51.354;9.588;2022-07-29T01:09:16;8.20;;;1.70;;
5608;SDS011;2826;51.354;9.588;2022-07-29T01:11:44;5.90;;;2.13;;
5608;SDS011;2826;51.354;9.588;2022-07-29T01:14:13;7.43;;;1.80;;
5608;SDS011;2826;51.354;9.588;2022-07-29T01:16:42;3.30;;;1.40;;
5608;SDS011;2826;51.354;9.588;2022-07-29T01:19:19;3.77;;;1.70;;
5608;SDS011;2826;51.354;9.588;2022-07-29T01:22:02;9.40;;;1.80;;
5608;SDS011;2826;51.354;9.588;2022-07-29T01:24:50;4.20;;;1.60;;
5608;SDS011;2826;51.354;9.588;2022-07-29T01:27:38;3.23;;;1.77;;
5608;SDS011;2826;51.354;9.588;2022-07-29T01:30:12;10.53;;;2.27;;
5608;SDS011;2826;51.354;9.588;2022-07-29T01:32:39;6.87;;;1.67;;
5608;SDS011;2826;51.354;9.588;2022-07-29T01:35:10;4.73;;;2.07;;
5608;SDS011;2826;51.354;9.588;2022-07-29T01:37:45;4.37;;;2.23;;
5608;SDS011;2826;51.354;9.588;2022-07-29T01:40:18;5.37;;;1.60;;
5608;SDS011;2826;51.354;9.588;2022-07-29T01:42:48;4.33;;;1.63;;
5608;SDS011;2826;51.354;9.588;2022-07-29T01:45:20;6.87;;;2.30;;
5608;SDS011;2826;51.354;9.588;2022-07-29T01:47:51;7.30;;;1.80;;
5608;SDS011;2826;51.354;9.588;2022-07-29T01:50:26;2.23;;;1.60;;
5608;SDS011;2826;51.354;9.588;2022-07-29T01:52:58;3.73;;;1.57;;
5608;SDS011;2826;51.354;9.588;2022-07-29T01:55:28;5.73;;;2.23;;
5608;SDS011;2826;51.354;9.588;2022-07-29T01:57:58;2.50;;;1.57;;
5608;SDS011;2826;51.354;9.588;2022-07-29T02:00:28;4.53;;;1.73;;
5608;SDS011;2826;51.354;9.588;2022-07-29T02:02:58;2.90;;;1.63;;
5608;SDS011;2826;51.354;9.588;2022-07-29T02:05:27;3.20;;;1.60;;
5608;SDS011;2826;51.354;9.588;2022-07-29T02:07:55;4.20;;;1.50;;
5608;SDS011;2826;51.354;9.588;2022-07-29T02:10:26;3.87;;;2.00;;
5608;SDS011;2826;51.354;9.588;2022-07-29T02:12:56;5.10;;;1.80;;
5608;SDS011;2826;51.354;9.588;2022-07-29T02:15:24;4.13;;;1.90;;
5608;SDS011;2826;51.354;9.588;2022-07-29T02:17:56;5.43;;;1.77;;
5608;SDS011;2826;51.354;9.588;2022-07-29T02:20:26;4.70;;;1.77;;
5608;SDS011;2826;51.354;9.588;2022-07-29T02:22:55;2.90;;;1.40;;
5608;SDS011;2826;51.354;9.588;2022-07-29T02:25:25;3.87;;;1.77;;
5608;SDS011;2826;51.354;9.588;2022-07-29T02:27:53;6.67;;;1.73;;
5608;SDS011;2826;51.354;9.588;2022-07-29T02:30:20;6.63;;;1.83;;
5608;SDS011;2826;51.354;9.588;2022-07-29T02:32:48;2.83;;;1.63;;
5608;SDS011;2826;51.354;9.588;2022-07-29T02:35:18;7.37;;;1.67;;
5608;SDS011;2826;51.354;9.588;2022-07-29T02:37:47;6.63;;;1.50;;
5608;SDS011;2826;51.354;9.588;2022-07-29T02:40:35;14.33;;;1.70;;
5608;SDS011;2826;51.354;9.588;2022-07-29T02:43:06;3.20;;;1.80;;
5608;SDS011;2826;51.354;9.588;2022-07-29T02:45:34;4.90;;;1.80;;
5608;SDS011;2826;51.354;9.588;2022-07-29T02:48:03;6.13;;;1.40;;
5608;SDS011;2826;51.354;9.588;2022-07-29T02:50:36;2.07;;;1.47;;
5608;SDS011;2826;51.354;9.588;2022-07-29T02:53:07;3.87;;;1.50;;
5608;SDS011;2826;51.354;9.588;2022-07-29T02:55:40;6.10;;;1.63;;
5608;SDS011;2826;51.354;9.588;2022-07-29T02:58:12;4.27;;;1.50;;
5608;SDS011;2826;51.354;9.588;2022-07-29T03:00:42;4.63;;;1.60;;
5608;SDS011;2826;51.354;9.588;2022-07-29T03:03:12;10.07;;;1.80;;
5608;SDS011;2826;51.354;9.588;2022-07-29T03:05:42;4.83;;;1.70;;
5608;SDS011;2826;51.354;9.588;2022-07-29T03:08:10;2.80;;;1.60;;
5608;SDS011;2826;51.354;9.588;2022-07-29T03:10:38;3.03;;;1.17;;
5608;SDS011;2826;51.354;9.588;2022-07-29T03:13:09;7.70;;;1.87;;
5608;SDS011;2826;51.354;9.588;2022-07-29T03:15:37;8.20;;;1.83;;
5608;SDS011;2826;51.354;9.588;2022-07-29T03:18:05;2.10;;;1.30;;
5608;SDS011;2826;51.354;9.588;2022-07-29T03:20:33;5.77;;;1.93;;
5608;SDS011;2826;51.354;9.588;2022-07-29T03:23:01;3.93;;;2.10;;
5608;SDS011;2826;51.354;9.588;2022-07-29T03:25:30;5.17;;;1.50;;
5608;SDS011;2826;51.354;9.588;2022-07-29T03:27:57;5.30;;;1.70;;
5608;SDS011;2826;51.354;9.588;2022-07-29T03:30:24;2.00;;;1.40;;
5608;SDS011;2826;51.354;9.588;2022-07-29T03:32:50;8.43;;;1.77;;
5608;SDS011;2826;51.354;9.588;2022-07-29T03:35:18;3.10;;;1.67;;
5608;SDS011;2826;51.354;9.588;2022-07-29T03:37:45;3.20;;;1.40;;
5608;SDS011;2826;51.354;9.588;2022-07-29T03:40:17;6.27;;;1.40;;
5608;SDS011;2826;51.354;9.588;2022-07-29T03:42:46;2.77;;;1.63;;
5608;SDS011;2826;51.354;9.588;2022-07-29T03:45:17;5.10;;;1.90;;
5608;SDS011;2826;51.354;9.588;2022-07-29T03:47:47;3.43;;;1.50;;
5608;SDS011;2826;51.354;9.588;2022-07-29T03:50:17;11.43;;;1.83;;
5608;SDS011;2826;51.354;9.588;2022-07-29T03:52:46;2.70;;;1.67;;
5608;SDS011;2826;51.354;9.588;2022-07-29T03:55:15;4.30;;;1.77;;
5608;SDS011;2826;51.354;9.588;2022-07-29T03:57:43;5.97;;;1.70;;
5608;SDS011;2826;51.354;9.588;2022-07-29T04:00:11;4.40;;;1.90;;
5608;SDS011;2826;51.354;9.588;2022-07-29T04:02:39;6.60;;;1.90;;
5608;SDS011;2826;51.354;9.588;2022-07-29T04:05:10;2.40;;;1.50;;
5608;SDS011;2826;51.354;9.588;2022-07-29T04:07:38;3.20;;;1.60;;
5608;SDS011;2826;51.354;9.588;2022-07-29T04:10:05;4.23;;;1.60;;
5608;SDS011;2826;51.354;9.588;2022-07-29T04:12:34;2.20;;;1.50;;
5608;SDS011;2826;51.354;9.588;2022-07-29T04:15:01;3.60;;;1.90;;
5608;SDS011;2826;51.354;9.588;2022-07-29T04:17:28;4.07;;;1.97;;
5608;SDS011;2826;51.354;9.588;2022-07-29T04:19:54;3.87;;;1.67;;
5608;SDS011;2826;51.354;9.588;2022-07-29T04:22:21;5.23;;;1.40;;
5608;SDS011;2826;51.354;9.588;2022-07-29T04:24:48;16.07;;;1.47;;
5608;SDS011;2826;51.354;9.588;2022-07-29T04:27:15;3.13;;;1.50;;
5608;SDS011;2826;51.354;9.588;2022-07-29T04:29:43;8.50;;;1.60;;
5608;SDS011;2826;51.354;9.588;2022-07-29T04:32:10;2.03;;;1.60;;
5608;SDS011;2826;51.354;9.588;2022-07-29T04:34:36;4.63;;;1.80;;
5608;SDS011;2826;51.354;9.588;2022-07-29T04:37:03;2.50;;;1.57;;
5608;SDS011;2826;51.354;9.588;2022-07-29T04:39:30;3.90;;;1.60;;
5608;SDS011;2826;51.354;9.588;2022-07-29T04:41:57;3.03;;;1.50;;
5608;SDS011;2826;51.354;9.588;2022-07-29T04:44:23;3.80;;;1.33;;
5608;SDS011;2826;51.354;9.588;2022-07-29T04:46:51;2.23;;;1.67;;
5608;SDS011;2826;51.354;9.588;2022-07-29T04:49:18;4.60;;;1.90;;
5608;SDS011;2826;51.354;9.588;2022-07-29T04:51:45;2.47;;;1.60;;
5608;SDS011;2826;51.354;9.588;2022-07-29T04:54:12;6.90;;;1.70;;
5608;SDS011;2826;51.354;9.588;2022-07-29T04:56:38;4.70;;;1.97;;
5608;SDS011;2826;51.354;9.588;2022-07-29T04:59:06;4.17;;;1.60;;
5608;SDS011;2826;51.354;9.588;2022-07-29T05:01:32;7.17;;;1.83;;
5608;SDS011;2826;51.354;9.588;2022-07-29T05:04:00;2.10;;;1.40;;
5608;SDS011;2826;51.354;9.588;2022-07-29T05:06:27;5.93;;;1.90;;
5608;SDS011;2826;51.354;9.588;2022-07-29T05:08:54;14.70;;;1.60;;
5608;SDS011;2826;51.354;9.588;2022-07-29T05:11:21;5.87;;;1.60;;
5608;SDS011;2826;51.354;9.588;2022-07-29T05:13:48;3.43;;;1.93;;
5608;SDS011;2826;51.354;9.588;2022-07-29T05:16:15;4.50;;;1.90;;
5608;SDS011;2826;51.354;9.588;2022-07-29T05:18:41;5.20;;;1.87;;
5608;SDS011;2826;51.354;9.588;2022-07-29T05:21:09;9.80;;;2.30;;
5608;SDS011;2826;51.354;9.588;2022-07-29T05:23:37;6.13;;;2.03;;
5608;SDS011;2826;51.354;9.588;2022-07-29T05:26:04;2.93;;;1.70;;
5608;SDS011;2826;51.354;9.588;2022-07-29T05:28:32;8.93;;;1.90;;
5608;SDS011;2826;51.354;9.588;2022-07-29T05:31:00;8.10;;;1.70;;
5608;SDS011;2826;51.354;9.588;2022-07-29T05:33:26;6.57;;;1.93;;
5608;SDS011;2826;51.354;9.588;2022-07-29T05:35:53;4.53;;;1.90;;
5608;SDS011;2826;51.354;9.588;2022-07-29T05:38:21;5.40;;;1.80;;
5608;SDS011;2826;51.354;9.588;2022-07-29T05:40:48;4.90;;;1.60;;
5608;SDS011;2826;51.354;9.588;2022-07-29T05:43:14;5.53;;;2.60;;
5608;SDS011;2826;51.354;9.588;2022-07-29T05:45:41;5.10;;;2.10;;
5608;SDS011;2826;51.354;9.588;2022-07-29T05:48:08;2.87;;;1.63;;
5608;SDS011;2826;51.354;9.588;2022-07-29T05:50:34;5.00;;;1.57;;
5608;SDS011;2826;51.354;9.588;2022-07-29T05:53:01;3.23;;;1.80;;
5608;SDS011;2826;51.354;9.588;2022-07-29T05:55:29;5.57;;;1.73;;
5608;SDS011;2826;51.354;9.588;2022-07-29T05:57:56;6.40;;;1.70;;
5608;SDS011;2826;51.354;9.588;2022-07-29T06:00:22;2.80;;;1.50;;
5608;SDS011;2826;51.354;9.588;2022-07-29T06:02:49;7.50;;;1.63;;
5608;SDS011;2826;51.354;9.588;2022-07-29T06:05:16;4.40;;;1.93;;
5608;SDS011;2826;51.354;9.588;2022-07-29T06:07:44;2.70;;;1.73;;
5608;SDS011;2826;51.354;9.588;2022-07-29T06:10:11;4.53;;;1.70;;
5608;SDS011;2826;51.354;9.588;2022-07-29T06:12:39;4.87;;;1.70;;
5608;SDS011;2826;51.354;9.588;2022-07-29T06:15:07;4.43;;;1.80;;
5608;SDS011;2826;51.354;9.588;2022-07-29T06:17:35;8.63;;;1.90;;
5608;SDS011;2826;51.354;9.588;2022-07-29T06:20:02;13.27;;;2.50;;
5608;SDS011;2826;51.354;9.588;2022-07-29T06:22:29;9.03;;;1.47;;
5608;SDS011;2826;51.354;9.588;2022-07-29T06:24:56;3.73;;;1.37;;
5608;SDS011;2826;51.354;9.588;2022-07-29T06:27:22;2.67;;;1.83;;
5608;SDS011;2826;51.354;9.588;2022-07-29T06:29:51;6.33;;;2.03;;
5608;SDS011;2826;51.354;9.588;2022-07-29T06:32:17;2.60;;;1.70;;
5608;SDS011;2826;51.354;9.588;2022-07-29T06:34:44;9.27;;;2.60;;
5608;SDS011;2826;51.354;9.588;2022-07-29T06:37:11;3.50;;;1.53;;
5608;SDS011;2826;51.354;9.588;2022-07-29T06:39:38;5.27;;;2.10;;
5608;SDS011;2826;51.354;9.588;2022-07-29T06:42:05;5.20;;;1.80;;
5608;SDS011;2826;51.354;9.588;2022-07-29T06:44:32;4.30;;;1.63;;
5608;SDS011;2826;51.354;9.588;2022-07-29T06:47:01;5.83;;;1.87;;
5608;SDS011;2826;51.354;9.588;2022-07-29T06:49:28;10.40;;;1.73;;
5608;SDS011;2826;51.354;9.588;2022-07-29T06:51:55;7.50;;;1.70;;
5608;SDS011;2826;51.354;9.588;2022-07-29T06:54:22;2.77;;;1.90;;
5608;SDS011;2826;51.354;9.588;2022-07-29T06:56:48;3.43;;;1.87;;
5608;SDS011;2826;51.354;9.588;2022-07-29T06:59:15;5.63;;;1.90;;
5608;SDS011;2826;51.354;9.588;2022-07-29T07:01:43;8.70;;;1.80;;
5608;SDS011;2826;51.354;9.588;2022-07-29T07:04:11;3.93;;;1.70;;
5608;SDS011;2826;51.354;9.588;2022-07-29T07:06:38;9.60;;;1.80;;
5608;SDS011;2826;51.354;9.588;2022-07-29T07:09:06;7.13;;;2.40;;
5608;SDS011;2826;51.354;9.588;2022-07-29T07:11:33;8.43;;;1.83;;
5608;SDS011;2826;51.354;9.588;2022-07-29T07:14:00;19.40;;;2.20;;
5608;SDS011;2826;51.354;9.588;2022-07-29T07:16:27;4.50;;;1.80;;
5608;SDS011;2826;51.354;9.588;2022-07-29T07:18:53;2.33;;;1.40;;
5608;SDS011;2826;51.354;9.588;2022-07-29T07:21:21;5.20;;;1.73;;
5608;SDS011;2826;51.354;9.588;2022-07-29T07:23:48;6.07;;;2.00;;
5608;SDS011;2826;51.354;9.588;2022-07-29T07:26:14;9.43;;;1.93;;
5608;SDS011;2826;51.354;9.588;2022-07-29T07:28:41;4.77;;;1.97;;
5608;SDS011;2826;51.354;9.588;2022-07-29T07:31:08;8.87;;;2.03;;
5608;SDS011;2826;51.354;9.588;2022-07-29T07:33:35;4.23;;;1.80;;
5608;SDS011;2826;51.354;9.588;2022-07-29T07:36:01;5.00;;;1.60;;
5608;SDS011;2826;51.354;9.588;2022-07-29T07:38:30;20.07;;;2.30;;
5608;SDS011;2826;51.354;9.588;2022-07-29T07:40:57;5.10;;;1.80;;
5608;SDS011;2826;51.354;9.588;2022-07-29T07:43:23;9.90;;;1.97;;
5608;SDS011;2826;51.354;9.588;2022-07-29T07:45:50;7.00;;;2.30;;
5608;SDS011;2826;51.354;9.588;2022-07-29T07:48:17;11.70;;;2.40;;
5608;SDS011;2826;51.354;9.588;2022-07-29T07:50:43;11.33;;;2.03;;
5608;SDS011;2826;51.354;9.588;2022-07-29T07:53:10;7.40;;;2.10;;
5608;SDS011;2826;51.354;9.588;2022-07-29T07:55:40;6.30;;;2.27;;
5608;SDS011;2826;51.354;9.588;2022-07-29T07:58:07;9.43;;;2.03;;
5608;SDS011;2826;51.354;9.588;2022-07-29T08:00:34;3.83;;;2.27;;
5608;SDS011;2826;51.354;9.588;2022-07-29T08:03:02;4.20;;;1.80;;
5608;SDS011;2826;51.354;9.588;2022-07-29T08:05:29;7.83;;;1.70;;
5608;SDS011;2826;51.354;9.588;2022-07-29T08:07:56;20.53;;;2.37;;
5608;SDS011;2826;51.354;9.588;2022-07-29T08:10:23;8.00;;;1.90;;
5608;SDS011;2826;51.354;9.588;2022-07-29T08:13:09;10.33;;;2.40;;
5608;SDS011;2826;51.354;9.588;2022-07-29T08:15:38;3.23;;;2.00;;
5608;SDS011;2826;51.354;9.588;2022-07-29T08:18:05;4.83;;;2.30;;
5608;SDS011;2826;51.354;9.588;2022-07-29T08:20:32;6.83;;;2.47;;
5608;SDS011;2826;51.354;9.588;2022-07-29T08:23:00;3.60;;;2.20;;
5608;SDS011;2826;51.354;9.588;2022-07-29T08:25:28;5.17;;;2.47;;
5608;SDS011;2826;51.354;9.588;2022-07-29T08:27:54;12.27;;;2.00;;
5608;SDS011;2826;51.354;9.588;2022-07-29T08:30:23;6.00;;;1.90;;
5608;SDS011;2826;51.354;9.588;2022-07-29T08:32:50;12.53;;;2.33;;
5608;SDS011;2826;51.354;9.588;2022-07-29T08:35:18;14.70;;;2.17;;
5608;SDS011;2826;51.354;9.588;2022-07-29T08:37:45;12.73;;;2.53;;
5608;SDS011;2826;51.354;9.588;2022-07-29T08:40:12;4.03;;;2.00;;
5608;SDS011;2826;51.354;9.588;2022-07-29T08:42:40;13.60;;;2.23;;
5608;SDS011;2826;51.354;9.588;2022-07-29T08:45:10;8.93;;;2.10;;
5608;SDS011;2826;51.354;9.588;2022-07-29T08:47:39;3.20;;;2.00;;
5608;SDS011;2826;51.354;9.588;2022-07-29T08:50:06;4.43;;;2.40;;
5608;SDS011;2826;51.354;9.588;2022-07-29T08:52:35;3.20;;;2.00;;
5608;SDS011;2826;51.354;9.588;2022-07-29T08:55:05;8.53;;;2.43;;
5608;SDS011;2826;51.354;9.588;2022-07-29T08:57:33;5.27;;;2.23;;
5608;SDS011;2826;51.354;9.588;2022-07-29T09:00:02;4.50;;;2.00;;
5608;SDS011;2826;51.354;9.588;2022-07-29T09:02:33;6.07;;;2.30;;
5608;SDS011;2826;51.354;9.588;2022-07-29T09:05:07;2.73;;;1.73;;
5608;SDS011;2826;51.354;9.588;2022-07-29T09:07:34;4.70;;;1.93;;
5608;SDS011;2826;51.354;9.588;2022-07-29T09:10:02;6.80;;;1.90;;
5608;SDS011;2826;51.354;9.588;2022-07-29T09:12:30;4.47;;;2.30;;
5608;SDS011;2826;51.354;9.588;2022-07-29T09:14:57;3.50;;;2.27;;
5608;SDS011;2826;51.354;9.588;2022-07-29T09:17:40;6.87;;;1.97;;
5608;SDS011;2826;51.354;9.588;2022-07-29T09:20:10;2.93;;;2.10;;
5608;SDS011;2826;51.354;9.588;2022-07-29T09:22:38;8.73;;;2.67;;
5608;SDS011;2826;51.354;9.588;2022-07-29T09:25:05;4.77;;;1.90;;
5608;SDS011;2826;51.354;9.588;2022-07-29T09:27:32;3.27;;;2.00;;
5608;SDS011;2826;51.354;9.588;2022-07-29T09:30:00;6.43;;;2.00;;
5608;SDS011;2826;51.354;9.588;2022-07-29T09:32:29;6.10;;;1.93;;
5608;SDS011;2826;51.354;9.588;2022-07-29T09:35:20;3.93;;;2.10;;
5608;SDS011;2826;51.354;9.588;2022-07-29T09:37:48;2.83;;;2.00;;
5608;SDS011;2826;51.354;9.588;2022-07-29T09:40:15;10.50;;;2.50;;
5608;SDS011;2826;51.354;9.588;2022-07-29T09:42:44;9.83;;;1.97;;
5608;SDS011;2826;51.354;9.588;2022-07-29T09:45:12;4.57;;;2.23;;
5608;SDS011;2826;51.354;9.588;2022-07-29T09:47:51;5.60;;;2.17;;
5608;SDS011;2826;51.354;9.588;2022-07-29T09:50:21;8.03;;;2.20;;
5608;SDS011;2826;51.354;9.588;2022-07-29T09:52:49;6.63;;;2.00;;
5608;SDS011;2826;51.354;9.588;2022-07-29T09:55:18;2.23;;;2.03;;
5608;SDS011;2826;51.354;9.588;2022-07-29T09:57:46;12.70;;;2.53;;
5608;SDS011;2826;51.354;9.588;2022-07-29T10:00:14;9.87;;;2.53;;
5608;SDS011;2826;51.354;9.588;2022-07-29T10:02:43;9.57;;;2.50;;
5608;SDS011;2826;51.354;9.588;2022-07-29T10:05:19;5.10;;;1.93;;
5608;SDS011;2826;51.354;9.588;2022-07-29T10:07:49;5.50;;;2.20;;
5608;SDS011;2826;51.354;9.588;2022-07-29T10:10:21;2.80;;;1.80;;
5608;SDS011;2826;51.354;9.588;2022-07-29T10:12:50;6.53;;;2.10;;
5608;SDS011;2826;51.354;9.588;2022-07-29T10:15:18;7.13;;;2.00;;
5608;SDS011;2826;51.354;9.588;2022-07-29T10:17:45;6.00;;;2.40;;
5608;SDS011;2826;51.354;9.588;2022-07-29T10:20:13;8.83;;;2.83;;
5608;SDS011;2826;51.354;9.588;2022-07-29T10:22:41;2.33;;;2.13;;
5608;SDS011;2826;51.354;9.588;2022-07-29T10:25:09;3.77;;;2.00;;
5608;SDS011;2826;51.354;9.588;2022-07-29T10:27:36;11.00;;;2.10;;
5608;SDS011;2826;51.354;9.588;2022-07-29T10:30:04;5.63;;;2.33;;
5608;SDS011;2826;51.354;9.588;2022-07-29T10:32:39;4.70;;;2.30;;
5608;SDS011;2826;51.354;9.588;2022-07-29T10:35:18;2.77;;;2.00;;
5608;SDS011;2826;51.354;9.588;2022-07-29T10:38:10;2.63;;;2.13;;
5608;SDS011;2826;51.354;9.588;2022-07-29T10:40:54;8.03;;;2.27;;
5608;SDS011;2826;51.354;9.588;2022-07-29T10:43:47;3.30;;;2.10;;
5608;SDS011;2826;51.354;9.588;2022-07-29T10:46:15;7.43;;;2.23;;
5608;SDS011;2826;51.354;9.588;2022-07-29T10:54:45;17.73;;;2.33;;
5608;SDS011;2826;51.354;9.588;2022-07-29T10:57:19;5.40;;;2.40;;
5608;SDS011;2826;51.354;9.588;2022-07-29T10:59:48;3.27;;;2.40;;
5608;SDS011;2826;51.354;9.588;2022-07-29T11:05:11;6.67;;;2.30;;
5608;SDS011;2826;51.354;9.588;2022-07-29T11:07:39;4.17;;;1.90;;
5608;SDS011;2826;51.354;9.588;2022-07-29T11:10:28;11.17;;;2.30;;
5608;SDS011;2826;51.354;9.588;2022-07-29T11:12:55;10.07;;;2.90;;
5608;SDS011;2826;51.354;9.588;2022-07-29T11:15:22;11.87;;;2.87;;
5608;SDS011;2826;51.354;9.588;2022-07-29T11:18:05;5.03;;;2.13;;
5608;SDS011;2826;51.354;9.588;2022-07-29T11:20:33;5.53;;;2.13;;
5608;SDS011;2826;51.354;9.588;2022-07-29T11:23:03;3.63;;;2.13;;
5608;SDS011;2826;51.354;9.588;2022-07-29T11:25:45;8.50;;;2.30;;
5608;SDS011;2826;51.354;9.588;2022-07-29T11:28:39;3.83;;;2.17;;
5608;SDS011;2826;51.354;9.588;2022-07-29T11:31:16;4.17;;;2.10;;
5608;SDS011;2826;51.354;9.588;2022-07-29T11:33:46;3.57;;;2.43;;
5608;SDS011;2826;51.354;9.588;2022-07-29T11:36:13;6.00;;;2.30;;
5608;SDS011;2826;51.354;9.588;2022-07-29T11:38:41;6.10;;;2.20;;
5608;SDS011;2826;51.354;9.588;2022-07-29T11:41:25;8.53;;;2.17;;
5608;SDS011;2826;51.354;9.588;2022-07-29T11:43:56;4.57;;;2.30;;
5608;SDS011;2826;51.354;9.588;2022-07-29T11:46:43;6.33;;;2.00;;
5608;SDS011;2826;51.354;9.588;2022-07-29T11:49:12;4.03;;;2.20;;
5608;SDS011;2826;51.354;9.588;2022-07-29T11:51:39;5.10;;;2.07;;
5608;SDS011;2826;51.354;9.588;2022-07-29T11:54:08;5.63;;;2.70;;
5608;SDS011;2826;51.354;9.588;2022-07-29T11:56:41;9.40;;;2.47;;
5608;SDS011;2826;51.354;9.588;2022-07-29T11:59:11;4.80;;;2.20;;
5608;SDS011;2826;51.354;9.588;2022-07-29T12:01:51;4.03;;;2.30;;
5608;SDS011;2826;51.354;9.588;2022-07-29T12:04:18;8.87;;;2.13;;
5608;SDS011;2826;51.354;9.588;2022-07-29T12:06:48;2.67;;;2.10;;
5608;SDS011;2826;51.354;9.588;2022-07-29T12:09:16;4.63;;;2.30;;
5608;SDS011;2826;51.354;9.588;2022-07-29T12:11:45;5.47;;;2.20;;
5608;SDS011;2826;51.354;9.588;2022-07-29T12:14:25;7.90;;;2.37;;
5608;SDS011;2826;51.354;9.588;2022-07-29T12:16:53;5.53;;;2.07;;
5608;SDS011;2826;51.354;9.588;2022-07-29T12:19:19;4.90;;;2.10;;
5608;SDS011;2826;51.354;9.588;2022-07-29T12:21:47;4.33;;;3.03;;
5608;SDS011;2826;51.354;9.588;2022-07-29T12:24:15;12.83;;;2.40;;
5608;SDS011;2826;51.354;9.588;2022-07-29T12:26:51;10.70;;;2.43;;
5608;SDS011;2826;51.354;9.588;2022-07-29T12:29:18;10.07;;;2.33;;
5608;SDS011;2826;51.354;9.588;2022-07-29T12:31:45;4.37;;;2.70;;
5608;SDS011;2826;51.354;9.588;2022-07-29T12:34:13;3.17;;;2.70;;
5608;SDS011;2826;51.354;9.588;2022-07-29T12:36:42;7.60;;;2.20;;
5608;SDS011;2826;51.354;9.588;2022-07-29T12:39:09;10.70;;;2.20;;
5608;SDS011;2826;51.354;9.588;2022-07-29T12:41:37;4.00;;;2.53;;
5608;SDS011;2826;51.354;9.588;2022-07-29T12:44:06;26.37;;;2.83;;
5608;SDS011;2826;51.354;9.588;2022-07-29T12:46:33;11.63;;;3.07;;
5608;SDS011;2826;51.354;9.588;2022-07-29T12:49:00;8.83;;;2.60;;
5608;SDS011;2826;51.354;9.588;2022-07-29T12:51:30;4.80;;;2.40;;
5608;SDS011;2826;51.354;9.588;2022-07-29T12:54:02;2.50;;;2.03;;
5608;SDS011;2826;51.354;9.588;2022-07-29T12:56:31;2.80;;;2.10;;
5608;SDS011;2826;51.354;9.588;2022-07-29T12:58:57;3.83;;;2.63;;
5608;SDS011;2826;51.354;9.588;2022-07-29T13:01:26;3.40;;;2.40;;
5608;SDS011;2826;51.354;9.588;2022-07-29T13:03:53;5.00;;;2.70;;
5608;SDS011;2826;51.354;9.588;2022-07-29T13:06:36;3.90;;;2.50;;
5608;SDS011;2826;51.354;9.588;2022-07-29T13:09:05;5.97;;;2.13;;
5608;SDS011;2826;51.354;9.588;2022-07-29T13:11:35;4.67;;;2.50;;
5608;SDS011;2826;51.354;9.588;2022-07-29T13:14:05;9.13;;;2.77;;
5608;SDS011;2826;51.354;9.588;2022-07-29T13:16:35;2.87;;;2.57;;
5608;SDS011;2826;51.354;9.588;2022-07-29T13:19:04;3.60;;;2.13;;
5608;SDS011;2826;51.354;9.588;2022-07-29T13:21:32;6.40;;;2.30;;
5608;SDS011;2826;51.354;9.588;2022-07-29T13:23:59;8.90;;;2.40;;
5608;SDS011;2826;51.354;9.588;2022-07-29T13:26:26;3.83;;;2.57;;
5608;SDS011;2826;51.354;9.588;2022-07-29T13:28:53;3.90;;;2.80;;
5608;SDS011;2826;51.354;9.588;2022-07-29T13:31:20;3.63;;;2.43;;
5608;SDS011;2826;51.354;9.588;2022-07-29T13:33:48;7.53;;;2.50;;
5608;SDS011;2826;51.354;9.588;2022-07-29T13:36:15;8.30;;;2.93;;
5608;SDS011;2826;51.354;9.588;2022-07-29T13:38:42;6.20;;;2.70;;
5608;SDS011;2826;51.354;9.588;2022-07-29T13:41:09;6.30;;;2.60;;
5608;SDS011;2826;51.354;9.588;2022-07-29T13:43:36;6.13;;;2.70;;
5608;SDS011;2826;51.354;9.588;2022-07-29T13:46:03;6.30;;;2.77;;
5608;SDS011;2826;51.354;9.588;2022-07-29T13:48:29;2.83;;;2.30;;
5608;SDS011;2826;51.354;9.588;2022-07-29T13:50:57;5.27;;;2.33;;
5608;SDS011;2826;51.354;9.588;2022-07-29T13:53:24;4.83;;;2.73;;
5608;SDS011;2826;51.354;9.588;2022-07-29T13:55:53;8.20;;;2.67;;
5608;SDS011;2826;51.354;9.588;2022-07-29T13:58:20;4.13;;;2.70;;
5608;SDS011;2826;51.354;9.588;2022-07-29T14:00:47;4.10;;;2.60;;
5608;SDS011;2826;51.354;9.588;2022-07-29T14:03:13;7.73;;;2.67;;
5608;SDS011;2826;51.354;9.588;2022-07-29T14:05:40;10.33;;;2.60;;
5608;SDS011;2826;51.354;9.588;2022-07-29T14:08:08;4.80;;;2.57;;
5608;SDS011;2826;51.354;9.588;2022-07-29T14:10:35;3.73;;;2.70;;
5608;SDS011;2826;51.354;9.588;2022-07-29T14:13:01;5.63;;;2.97;;
5608;SDS011;2826;51.354;9.588;2022-07-29T14:15:28;6.10;;;2.70;;
5608;SDS011;2826;51.354;9.588;2022-07-29T14:17:55;2.50;;;2.23;;
5608;SDS011;2826;51.354;9.588;2022-07-29T14:20:22;12.17;;;2.20;;
5608;SDS011;2826;51.354;9.588;2022-07-29T14:22:49;9.23;;;2.73;;
5608;SDS011;2826;51.354;9.588;2022-07-29T14:25:17;3.80;;;2.17;;
5608;SDS011;2826;51.354;9.588;2022-07-29T14:27:44;10.53;;;2.30;;
5608;SDS011;2826;51.354;9.588;2022-07-29T14:30:11;6.23;;;2.83;;
5608;SDS011;2826;51.354;9.588;2022-07-29T14:32:38;5.73;;;2.57;;
5608;SDS011;2826;51.354;9.588;2022-07-29T14:35:06;6.17;;;3.00;;
5608;SDS011;2826;51.354;9.588;2022-07-29T14:37:34;7.33;;;2.90;;
5608;SDS011;2826;51.354;9.588;2022-07-29T14:40:01;7.37;;;2.40;;
5608;SDS011;2826;51.354;9.588;2022-07-29T14:42:30;7.20;;;2.60;;
5608;SDS011;2826;51.354;9.588;2022-07-29T14:44:57;7.60;;;2.50;;
5608;SDS011;2826;51.354;9.588;2022-07-29T14:47:24;4.87;;;2.60;;
5608;SDS011;2826;51.354;9.588;2022-07-29T14:49:51;2.77;;;2.53;;
5608;SDS011;2826;51.354;9.588;2022-07-29T14:52:19;5.07;;;2.43;;
5608;SDS011;2826;51.354;9.588;2022-07-29T14:54:46;11.67;;;2.60;;
5608;SDS011;2826;51.354;9.588;2022-07-29T14:57:13;10.03;;;2.90;;
5608;SDS011;2826;51.354;9.588;2022-07-29T14:59:41;10.07;;;2.70;;
5608;SDS011;2826;51.354;9.588;2022-07-29T15:02:08;11.73;;;3.40;;
5608;SDS011;2826;51.354;9.588;2022-07-29T15:04:35;7.43;;;3.17;;
5608;SDS011;2826;51.354;9.588;2022-07-29T15:07:01;4.30;;;2.13;;
5608;SDS011;2826;51.354;9.588;2022-07-29T15:09:28;4.83;;;3.00;;
5608;SDS011;2826;51.354;9.588;2022-07-29T15:11:55;4.30;;;2.47;;
5608;SDS011;2826;51.354;9.588;2022-07-29T15:14:22;3.73;;;2.50;;
5608;SDS011;2826;51.354;9.588;2022-07-29T15:16:50;7.23;;;3.03;;
5608;SDS011;2826;51.354;9.588;2022-07-29T15:19:17;26.67;;;4.00;;
5608;SDS011;2826;51.354;9.588;2022-07-29T15:21:44;8.00;;;2.87;;
5608;SDS011;2826;51.354;9.588;2022-07-29T15:24:11;7.13;;;2.67;;
5608;SDS011;2826;51.354;9.588;2022-07-29T15:26:37;4.17;;;2.70;;
5608;SDS011;2826;51.354;9.588;2022-07-29T15:29:04;5.10;;;3.10;;
5608;SDS011;2826;51.354;9.588;2022-07-29T15:31:31;3.07;;;2.50;;
5608;SDS011;2826;51.354;9.588;2022-07-29T15:33:59;8.60;;;2.80;;